Time;durP1;ratioP1;P1;durP2;ratioP2;P2;SDS_P1;SDS_P2;PMS_P1;PMS_P2;Temp;Humidity;BMP_temperature;BMP_pressure;BME280_temperature;BME280_humidity;BME280_pressure;Samples;Min_cycle;Max_cycle;Signal;HPM_P1;HPM_P2
2023/03/29 00:01:50;;;;;;;1.77;0.90;;;5.60;58.30;;;;;;5073666;28;20190;-70
2023/03/29 00:04:18;;;;;;;4.05;0.70;;;5.70;57.80;;;;;;5073805;28;20197;-72
2023/03/29 00:06:46;;;;;;;2.20;0.85;;;5.90;57.80;;;;;;5074018;28;20221;-70
2023/03/29 00:09:14;;;;;;;2.08;0.80;;;6.10;58.20;;;;;;5073800;28;20225;-70
2023/03/29 00:11:41;;;;;;;2.20;0.80;;;6.20;58.60;;;;;;5073374;28;20226;-70
2023/03/29 00:14:08;;;;;;;1.80;0.70;;;6.30;61.40;;;;;;5073645;28;20225;-69
2023/03/29 00:16:35;;;;;;;1.67;0.65;;;6.30;63.90;;;;;;5073031;28;20272;-70
2023/03/29 00:19:03;;;;;;;2.90;0.75;;;6.50;65.60;;;;;;5073486;28;20281;-70
2023/03/29 00:21:30;;;;;;;1.77;0.85;;;6.50;66.40;;;;;;5073314;28;20229;-70
2023/03/29 00:23:58;;;;;;;1.92;0.85;;;6.50;67.00;;;;;;5073105;28;20282;-70
2023/03/29 00:26:25;;;;;;;2.20;1.20;;;6.50;68.10;;;;;;5072979;28;20225;-70
2023/03/29 00:28:52;;;;;;;2.00;0.77;;;6.50;68.30;;;;;;5073279;28;20628;-70
2023/03/29 00:31:19;;;;;;;3.53;1.25;;;6.50;69.20;;;;;;5073386;28;20274;-70
2023/03/29 00:33:46;;;;;;;3.85;0.90;;;6.50;70.00;;;;;;5073140;28;20726;-70
2023/03/29 00:36:14;;;;;;;1.70;0.80;;;6.60;70.20;;;;;;5073399;28;20277;-70
2023/03/29 00:38:42;;;;;;;1.90;0.77;;;6.50;70.50;;;;;;5073239;28;20208;-70
2023/03/29 00:41:09;;;;;;;2.47;1.10;;;6.60;71.00;;;;;;5072906;28;20190;-70
2023/03/29 00:43:57;;;;;;;1.90;0.80;;;6.60;71.00;;;;;;5073044;28;20225;-69
2023/03/29 00:46:26;;;;;;;1.80;0.80;;;6.60;71.30;;;;;;5072786;28;20699;-70
2023/03/29 00:48:54;;;;;;;2.17;1.13;;;6.60;71.70;;;;;;5073179;28;20194;-70
2023/03/29 00:51:25;;;;;;;1.90;0.98;;;6.60;72.30;;;;;;5072942;28;20213;-70
2023/03/29 00:53:58;;;;;;;1.98;1.13;;;6.50;72.70;;;;;;5072929;28;20221;-70
2023/03/29 00:56:30;;;;;;;1.98;1.00;;;6.50;73.00;;;;;;5073053;28;20190;-70
2023/03/29 00:59:00;;;;;;;3.08;0.82;;;6.50;73.90;;;;;;5072889;28;20190;-70
2023/03/29 01:01:33;;;;;;;1.90;1.10;;;6.50;74.60;;;;;;5072975;28;20537;-70
2023/03/29 01:04:07;;;;;;;2.25;0.98;;;6.50;74.90;;;;;;5072984;28;20543;-70
2023/03/29 01:06:42;;;;;;;2.65;0.90;;;6.40;75.10;;;;;;5072759;28;20198;-69
2023/03/29 01:09:13;;;;;;;2.65;0.90;;;6.50;76.10;;;;;;5072758;28;20221;-69
2023/03/29 01:11:45;;;;;;;2.30;0.80;;;6.50;76.10;;;;;;5073121;28;20323;-69
2023/03/29 01:14:19;;;;;;;2.00;0.85;;;6.40;75.40;;;;;;5072935;28;20668;-69
2023/03/29 01:16:46;;;;;;;2.25;0.90;;;6.40;75.30;;;;;;5073051;28;20258;-70
2023/03/29 01:19:18;;;;;;;4.45;0.90;;;6.40;75.80;;;;;;5072679;28;20646;-69
2023/03/29 01:21:51;;;;;;;1.90;0.80;;;6.30;76.10;;;;;;5072661;28;20221;-70
2023/03/29 01:24:31;;;;;;;2.33;1.20;;;6.30;77.20;;;;;;5072496;28;20636;-70
2023/03/29 01:27:05;;;;;;;2.50;1.40;;;6.30;78.00;;;;;;5072674;28;20683;-69
2023/03/29 01:29:36;;;;;;;2.08;0.90;;;6.40;79.20;;;;;;5072797;28;20193;-69
2023/03/29 01:32:08;;;;;;;3.35;0.90;;;6.30;79.40;;;;;;5072417;28;20225;-70
2023/03/29 01:34:42;;;;;;;2.45;0.90;;;6.30;81.20;;;;;;5072676;28;20196;-69
2023/03/29 01:37:14;;;;;;;2.53;1.10;;;6.20;81.30;;;;;;5072410;28;20190;-69
2023/03/29 01:39:41;;;;;;;2.38;1.20;;;6.20;81.50;;;;;;5072590;28;20202;-70
2023/03/29 01:42:23;;;;;;;3.05;1.05;;;6.10;82.00;;;;;;5072606;28;20186;-69
2023/03/29 01:44:57;;;;;;;4.55;1.10;;;6.00;82.40;;;;;;5072712;28;20224;-73
2023/03/29 01:47:30;;;;;;;2.08;0.80;;;6.00;83.30;;;;;;5072632;28;20236;-70
2023/03/29 01:50:06;;;;;;;2.22;1.00;;;5.90;83.70;;;;;;5072578;28;20281;-71
2023/03/29 01:52:38;;;;;;;2.80;0.93;;;5.90;83.90;;;;;;5072502;28;20563;-69
2023/03/29 01:55:10;;;;;;;2.03;0.80;;;5.80;83.80;;;;;;5071827;28;20193;-70
2023/03/29 01:57:40;;;;;;;3.20;1.27;;;5.80;84.40;;;;;;5074353;28;20217;-70
2023/03/29 02:00:14;;;;;;;2.45;1.30;;;5.80;85.50;;;;;;5076102;28;20288;-69
2023/03/29 02:02:44;;;;;;;2.30;1.00;;;5.80;84.40;;;;;;5074724;28;20197;-69
2023/03/29 02:05:13;;;;;;;2.55;1.20;;;5.80;84.70;;;;;;5076261;28;20193;-70
2023/03/29 02:07:43;;;;;;;2.17;1.20;;;5.80;85.10;;;;;;5075939;28;20618;-70
2023/03/29 02:10:12;;;;;;;2.97;1.10;;;5.80;85.00;;;;;;5076068;28;20225;-69
2023/03/29 02:12:39;;;;;;;1.90;0.90;;;5.80;85.70;;;;;;5075973;28;20221;-70
2023/03/29 02:15:14;;;;;;;2.30;1.30;;;5.80;85.80;;;;;;5075881;28;20586;-70
2023/03/29 02:17:42;;;;;;;2.20;1.25;;;5.80;86.10;;;;;;5075920;28;20185;-69
2023/03/29 02:20:13;;;;;;;2.00;0.98;;;5.80;86.10;;;;;;5075748;28;20202;-69
2023/03/29 02:22:47;;;;;;;2.28;1.00;;;5.90;85.90;;;;;;5076071;28;20602;-70
2023/03/29 02:25:16;;;;;;;2.00;1.00;;;5.90;86.00;;;;;;5075718;28;20190;-70
2023/03/29 02:27:43;;;;;;;1.92;0.93;;;5.90;85.90;;;;;;5075775;28;20196;-69
2023/03/29 02:30:13;;;;;;;1.92;0.85;;;6.00;85.80;;;;;;5075358;28;20222;-69
2023/03/29 02:32:49;;;;;;;1.85;0.82;;;5.90;85.70;;;;;;5075313;28;20305;-69
2023/03/29 02:35:22;;;;;;;2.47;1.00;;;5.90;85.50;;;;;;5075727;28;20197;-70
2023/03/29 02:37:53;;;;;;;2.20;1.00;;;5.80;86.30;;;;;;5075419;28;20190;-69
2023/03/29 02:40:24;;;;;;;4.50;1.00;;;5.80;86.00;;;;;;5075499;28;20700;-70
2023/03/29 02:42:57;;;;;;;2.03;1.25;;;5.80;86.10;;;;;;5075304;28;20198;-70
2023/03/29 02:45:26;;;;;;;3.00;1.73;;;5.70;85.80;;;;;;5075317;28;20812;-69
2023/03/29 02:47:56;;;;;;;2.45;1.33;;;5.80;85.50;;;;;;5075349;28;20240;-70
2023/03/29 02:50:25;;;;;;;5.38;1.40;;;5.80;84.90;;;;;;5074976;28;20281;-70
2023/03/29 02:52:55;;;;;;;6.10;1.55;;;5.70;85.40;;;;;;5075219;28;20221;-70
2023/03/29 02:55:25;;;;;;;2.25;0.93;;;5.80;85.60;;;;;;5075264;28;20289;-70
2023/03/29 02:57:52;;;;;;;2.88;0.90;;;5.80;84.50;;;;;;5074802;28;20272;-69
2023/03/29 03:00:21;;;;;;;2.55;0.98;;;5.70;84.30;;;;;;5075068;28;20201;-69
2023/03/29 03:02:50;;;;;;;2.00;0.70;;;5.60;84.70;;;;;;5075313;28;20190;-70
2023/03/29 03:05:18;;;;;;;1.90;0.95;;;5.60;84.40;;;;;;5074767;28;20186;-70
2023/03/29 03:07:45;;;;;;;3.75;0.70;;;5.70;83.60;;;;;;5074397;28;20229;-70
2023/03/29 03:10:12;;;;;;;2.78;1.02;;;5.70;83.30;;;;;;5075005;28;20648;-69
2023/03/29 03:12:40;;;;;;;1.88;0.80;;;5.70;84.00;;;;;;5074845;28;20218;-73
2023/03/29 03:15:08;;;;;;;1.90;1.17;;;5.70;84.00;;;;;;5074571;28;20641;-70
2023/03/29 03:17:38;;;;;;;2.33;1.00;;;5.70;83.60;;;;;;5074398;28;20201;-70
2023/03/29 03:20:11;;;;;;;1.92;0.82;;;5.70;84.20;;;;;;5074845;28;20198;-69
2023/03/29 03:22:39;;;;;;;3.85;1.08;;;5.80;84.70;;;;;;5074300;28;20230;-69
2023/03/29 03:25:08;;;;;;;1.70;0.60;;;5.90;84.40;;;;;;5074482;28;20252;-70
2023/03/29 03:27:35;;;;;;;1.75;0.60;;;5.90;84.20;;;;;;5074481;28;20548;-69
2023/03/29 03:30:04;;;;;;;2.63;0.98;;;6.00;84.10;;;;;;5074372;28;20729;-70
2023/03/29 03:32:32;;;;;;;4.65;1.48;;;6.00;83.60;;;;;;5074711;28;20558;-70
2023/03/29 03:34:59;;;;;;;2.80;1.67;;;6.10;82.80;;;;;;5074418;28;20192;-69
2023/03/29 03:37:28;;;;;;;2.13;1.10;;;6.20;82.80;;;;;;5074279;28;20539;-69
2023/03/29 03:39:55;;;;;;;3.80;1.08;;;6.30;82.70;;;;;;5074235;28;20284;-70
2023/03/29 03:42:22;;;;;;;2.47;1.00;;;6.40;82.60;;;;;;5074245;28;20288;-70
2023/03/29 03:44:49;;;;;;;1.80;0.70;;;6.40;82.70;;;;;;5073943;28;20221;-70
2023/03/29 03:47:16;;;;;;;3.75;1.17;;;6.40;83.00;;;;;;5074064;28;20720;-70
2023/03/29 03:49:43;;;;;;;2.22;1.15;;;6.40;83.50;;;;;;5074076;28;20221;-70
2023/03/29 03:52:10;;;;;;;2.63;0.95;;;6.50;83.30;;;;;;5073967;28;20313;-69
2023/03/29 03:54:39;;;;;;;3.53;1.40;;;6.60;83.30;;;;;;5073842;28;20189;-69
2023/03/29 03:57:06;;;;;;;2.38;1.08;;;6.70;84.50;;;;;;5073898;28;20221;-70
2023/03/29 03:59:33;;;;;;;4.20;1.40;;;6.80;83.00;;;;;;5073699;28;20194;-72
2023/03/29 04:02:00;;;;;;;3.28;1.13;;;6.80;83.70;;;;;;5073860;28;20237;-69
2023/03/29 04:04:27;;;;;;;2.38;1.20;;;6.80;83.50;;;;;;5073842;28;20225;-70
2023/03/29 04:07:01;;;;;;;2.13;1.05;;;6.80;83.40;;;;;;5073796;28;20189;-69
2023/03/29 04:09:28;;;;;;;2.97;1.10;;;6.80;83.80;;;;;;5073645;28;20572;-69
2023/03/29 04:11:57;;;;;;;2.35;0.95;;;6.80;84.30;;;;;;5073496;28;20239;-69
2023/03/29 04:14:24;;;;;;;3.95;1.52;;;6.80;84.60;;;;;;5073687;28;20225;-70
2023/03/29 04:16:51;;;;;;;2.63;1.25;;;6.80;84.70;;;;;;5073403;28;20280;-70
2023/03/29 04:19:18;;;;;;;2.67;1.08;;;6.80;85.10;;;;;;5072802;28;20273;-70
2023/03/29 04:21:48;;;;;;;4.93;1.73;;;6.80;84.50;;;;;;5073597;28;20272;-70
2023/03/29 04:24:16;;;;;;;5.57;1.92;;;6.80;84.60;;;;;;5073179;28;20656;-70
2023/03/29 04:26:43;;;;;;;2.00;0.93;;;6.80;84.80;;;;;;5073443;28;20197;-69
2023/03/29 04:29:11;;;;;;;2.65;1.00;;;6.80;84.60;;;;;;5073559;28;20213;-69
2023/03/29 04:31:38;;;;;;;1.98;0.75;;;6.80;84.30;;;;;;5073591;28;20193;-70
2023/03/29 04:34:05;;;;;;;3.30;1.15;;;6.80;84.40;;;;;;5073506;28;20221;-70
2023/03/29 04:36:32;;;;;;;2.08;0.70;;;6.80;84.30;;;;;;5073347;28;20289;-70
2023/03/29 04:39:03;;;;;;;2.25;1.13;;;6.80;84.60;;;;;;5073207;28;20189;-69
2023/03/29 04:41:31;;;;;;;4.25;1.10;;;6.80;84.40;;;;;;5073150;28;20280;-69
2023/03/29 04:43:58;;;;;;;2.00;1.17;;;6.80;84.70;;;;;;5073476;28;20189;-69
2023/03/29 04:46:26;;;;;;;2.35;0.73;;;6.80;84.80;;;;;;5073242;28;20695;-70
2023/03/29 04:48:53;;;;;;;1.90;0.90;;;6.70;85.20;;;;;;5073338;28;20276;-70
2023/03/29 04:51:21;;;;;;;4.30;1.15;;;6.80;85.50;;;;;;5073258;28;20185;-71
2023/03/29 04:53:48;;;;;;;2.42;0.80;;;6.80;85.70;;;;;;5073128;28;20221;-71
2023/03/29 04:56:16;;;;;;;1.92;0.73;;;6.80;85.90;;;;;;5073169;28;20204;-70
2023/03/29 04:58:44;;;;;;;2.85;0.95;;;6.80;86.00;;;;;;5073366;28;20197;-70
2023/03/29 05:01:11;;;;;;;2.47;0.85;;;6.80;85.90;;;;;;5071018;28;20196;-70
2023/03/29 05:03:39;;;;;;;4.05;3.03;;;6.90;86.10;;;;;;5060364;28;20194;-70
2023/03/29 05:06:09;;;;;;;5.80;2.20;;;6.90;86.30;;;;;;5051910;28;20209;-70
2023/03/29 05:08:38;;;;;;;3.60;1.83;;;6.90;86.30;;;;;;5064172;28;20317;-70
2023/03/29 05:11:06;;;;;;;4.05;1.60;;;6.90;86.20;;;;;;5071785;28;20200;-70
2023/03/29 05:13:34;;;;;;;3.35;1.65;;;6.90;85.80;;;;;;5071632;28;20223;-70
2023/03/29 05:16:01;;;;;;;2.08;1.00;;;7.00;85.00;;;;;;5071596;28;20208;-70
2023/03/29 05:18:28;;;;;;;2.97;1.60;;;7.00;84.70;;;;;;5072214;28;20189;-70
2023/03/29 05:20:58;;;;;;;3.88;1.90;;;7.00;84.30;;;;;;5071623;28;20185;-73
2023/03/29 05:23:25;;;;;;;2.85;1.63;;;7.00;84.70;;;;;;5058167;28;20178;-70
2023/03/29 05:25:52;;;;;;;3.97;1.10;;;6.90;84.50;;;;;;5072083;28;20607;-70
2023/03/29 05:28:20;;;;;;;1.88;0.90;;;6.90;84.50;;;;;;5071920;28;20201;-71
2023/03/29 05:30:48;;;;;;;2.10;1.00;;;7.00;84.50;;;;;;5073353;28;20549;-76
2023/03/29 05:33:15;;;;;;;2.78;1.30;;;7.00;84.50;;;;;;5075953;28;20209;-69
2023/03/29 05:35:42;;;;;;;2.55;1.30;;;7.00;84.70;;;;;;5076305;28;20198;-70
2023/03/29 05:38:10;;;;;;;2.83;1.10;;;7.00;84.10;;;;;;5075854;28;20182;-70
2023/03/29 05:40:38;;;;;;;4.53;3.28;;;7.10;83.00;;;;;;5075340;28;20316;-70
2023/03/29 05:43:05;;;;;;;2.30;1.10;;;7.20;81.10;;;;;;5075247;28;20194;-70
2023/03/29 05:45:32;;;;;;;3.25;1.30;;;7.10;81.10;;;;;;5076473;28;20229;-70
2023/03/29 05:47:59;;;;;;;2.20;0.93;;;7.10;80.80;;;;;;5076540;28;20190;-70
2023/03/29 05:50:26;;;;;;;2.17;1.00;;;7.10;80.70;;;;;;5075554;28;20276;-70
2023/03/29 05:52:53;;;;;;;2.28;0.85;;;7.10;80.80;;;;;;5071036;28;20239;-70
2023/03/29 05:55:22;;;;;;;3.40;1.10;;;7.10;80.60;;;;;;5075215;28;20189;-70
2023/03/29 05:57:51;;;;;;;2.63;1.35;;;7.10;80.60;;;;;;5075258;28;20284;-70
2023/03/29 06:00:22;;;;;;;3.65;1.13;;;7.10;80.90;;;;;;5073964;28;20197;-70
2023/03/29 06:02:52;;;;;;;3.42;1.30;;;7.10;81.00;;;;;;5075691;28;20551;-71
2023/03/29 06:05:19;;;;;;;2.90;1.20;;;7.10;81.10;;;;;;5073997;28;20189;-72
2023/03/29 06:07:48;;;;;;;3.17;1.20;;;7.10;81.70;;;;;;5071839;28;20334;-70
2023/03/29 06:10:16;;;;;;;1.85;0.80;;;7.00;82.20;;;;;;5073990;28;20186;-70
2023/03/29 06:12:45;;;;;;;4.13;1.48;;;7.10;82.10;;;;;;5075525;28;20186;-70
2023/03/29 06:15:13;;;;;;;2.20;1.00;;;7.10;81.90;;;;;;5074726;28;20620;-70
2023/03/29 06:17:40;;;;;;;2.25;0.93;;;7.20;81.90;;;;;;5074762;28;20186;-70
2023/03/29 06:20:10;;;;;;;2.92;1.38;;;7.20;82.50;;;;;;5072025;28;20620;-70
2023/03/29 06:22:38;;;;;;;2.38;1.10;;;7.20;82.90;;;;;;5067800;28;20189;-70
2023/03/29 06:25:06;;;;;;;2.45;1.20;;;7.30;83.40;;;;;;5071638;28;20239;-70
2023/03/29 06:27:33;;;;;;;2.40;1.05;;;7.30;84.40;;;;;;5073726;28;20217;-70
2023/03/29 06:30:03;;;;;;;3.20;1.27;;;7.40;85.30;;;;;;5075095;28;20648;-70
2023/03/29 06:32:30;;;;;;;3.47;1.20;;;7.40;86.20;;;;;;5075003;28;20255;-70
2023/03/29 06:34:57;;;;;;;2.58;0.95;;;7.50;86.90;;;;;;5074890;28;20253;-70
2023/03/29 06:37:24;;;;;;;2.35;1.20;;;7.60;87.20;;;;;;5074211;28;20714;-70
2023/03/29 06:39:52;;;;;;;2.53;1.13;;;7.70;87.60;;;;;;5074558;28;20278;-71
2023/03/29 06:42:21;;;;;;;2.83;1.42;;;7.80;87.80;;;;;;5072812;28;20178;-71
2023/03/29 06:44:49;;;;;;;3.97;1.30;;;7.90;88.30;;;;;;5075028;28;20194;-71
2023/03/29 06:47:23;;;;;;;2.45;1.13;;;8.00;88.10;;;;;;5070928;28;20243;-72
2023/03/29 06:49:50;;;;;;;4.28;1.25;;;8.10;87.90;;;;;;5072832;28;20194;-71
2023/03/29 06:52:17;;;;;;;2.42;1.10;;;8.10;88.10;;;;;;5072272;28;20632;-70
2023/03/29 06:54:48;;;;;;;3.10;1.35;;;8.20;88.00;;;;;;5073311;28;20220;-71
2023/03/29 06:57:15;;;;;;;3.00;1.42;;;8.30;87.80;;;;;;5071143;28;20196;-71
2023/03/29 06:59:53;;;;;;;3.20;1.60;;;8.30;87.80;;;;;;5073637;28;20248;-71
2023/03/29 07:02:22;;;;;;;3.05;1.73;;;8.40;86.60;;;;;;5071335;28;20189;-71
2023/03/29 07:04:50;;;;;;;2.53;1.10;;;8.40;85.80;;;;;;5073840;28;20193;-71
2023/03/29 07:07:20;;;;;;;2.40;1.25;;;8.50;85.80;;;;;;5072365;28;20667;-71
2023/03/29 07:09:52;;;;;;;7.00;2.20;;;8.60;85.40;;;;;;5073283;28;20189;-70
2023/03/29 07:12:21;;;;;;;2.67;1.70;;;8.70;82.70;;;;;;5072389;28;20182;-72
2023/03/29 07:14:49;;;;;;;2.53;1.10;;;8.70;81.90;;;;;;5072599;28;20213;-71
2023/03/29 07:17:23;;;;;;;2.83;1.55;;;8.70;82.20;;;;;;5073109;28;20185;-71
2023/03/29 07:19:51;;;;;;;2.80;1.70;;;8.60;82.00;;;;;;5072414;28;20195;-71
2023/03/29 07:22:19;;;;;;;5.25;1.38;;;8.70;81.60;;;;;;5073221;28;20716;-71
2023/03/29 07:24:48;;;;;;;2.90;1.00;;;8.70;81.50;;;;;;5073278;28;20194;-70
2023/03/29 07:27:16;;;;;;;2.88;1.50;;;8.80;81.50;;;;;;5073203;28;20178;-70
2023/03/29 07:29:43;;;;;;;3.58;1.30;;;8.80;81.40;;;;;;5072537;28;20185;-70
2023/03/29 07:32:12;;;;;;;2.17;1.10;;;8.90;81.40;;;;;;5073254;28;20201;-70
2023/03/29 07:34:41;;;;;;;2.30;1.10;;;8.90;81.80;;;;;;5072309;28;20300;-70
2023/03/29 07:37:08;;;;;;;2.80;1.48;;;9.00;81.30;;;;;;5073041;28;20750;-71
2023/03/29 07:39:36;;;;;;;2.60;1.48;;;8.90;81.00;;;;;;5072106;28;20200;-71
2023/03/29 07:42:03;;;;;;;2.80;1.20;;;8.90;81.80;;;;;;5064561;28;20187;-70
2023/03/29 07:44:32;;;;;;;3.88;1.40;;;9.00;81.60;;;;;;5053146;28;20200;-70
2023/03/29 07:47:01;;;;;;;3.00;1.45;;;9.10;81.10;;;;;;5061353;28;20186;-70
2023/03/29 07:49:28;;;;;;;2.65;1.45;;;9.10;81.00;;;;;;5071789;28;20240;-71
2023/03/29 07:51:58;;;;;;;3.70;1.65;;;9.10;80.90;;;;;;5072822;28;20193;-71
2023/03/29 07:54:26;;;;;;;3.40;1.73;;;9.20;81.10;;;;;;5070710;28;20252;-71
2023/03/29 07:56:53;;;;;;;3.33;1.90;;;9.20;80.10;;;;;;5072079;28;20193;-74
2023/03/29 07:59:21;;;;;;;2.38;1.40;;;9.30;79.90;;;;;;5072522;28;20587;-71
2023/03/29 08:01:49;;;;;;;2.42;1.15;;;9.30;80.00;;;;;;5073433;28;20228;-71
2023/03/29 08:04:21;;;;;;;2.78;1.38;;;9.30;79.60;;;;;;5073042;28;20222;-70
2023/03/29 08:06:49;;;;;;;2.10;1.17;;;9.30;78.80;;;;;;5073866;28;20196;-72
2023/03/29 08:09:20;;;;;;;2.30;1.15;;;9.30;78.90;;;;;;5072063;28;20213;-71
2023/03/29 08:11:47;;;;;;;5.22;3.30;;;9.40;78.90;;;;;;5062886;28;20189;-72
2023/03/29 08:14:22;;;;;;;3.78;1.83;;;9.50;78.70;;;;;;5067669;28;20228;-71
2023/03/29 08:16:52;;;;;;;3.00;1.10;;;9.60;76.20;;;;;;5065078;28;20554;-72
2023/03/29 08:19:21;;;;;;;3.08;2.45;;;9.60;74.90;;;;;;5068208;28;20189;-72
2023/03/29 08:21:48;;;;;;;2.45;1.20;;;9.60;74.30;;;;;;5068543;28;20186;-70
2023/03/29 08:24:17;;;;;;;3.70;1.27;;;9.70;74.70;;;;;;5070419;28;20197;-72
2023/03/29 08:26:45;;;;;;;2.65;1.02;;;9.80;73.90;;;;;;5066445;28;20200;-70
2023/03/29 08:29:14;;;;;;;1.95;0.90;;;10.00;72.20;;;;;;5068244;28;20668;-70
2023/03/29 08:31:42;;;;;;;2.17;1.00;;;10.10;70.40;;;;;;5070037;28;20245;-71
2023/03/29 08:34:09;;;;;;;2.95;1.10;;;10.20;69.20;;;;;;5069448;28;20221;-70
2023/03/29 08:36:36;;;;;;;3.15;1.25;;;10.30;68.90;;;;;;5069999;28;20193;-70
2023/03/29 08:39:09;;;;;;;3.63;1.10;;;10.50;67.60;;;;;;5069856;28;20243;-72
2023/03/29 08:41:51;;;;;;;3.45;1.20;;;10.60;66.30;;;;;;5069924;28;20197;-72
2023/03/29 08:44:44;;;;;;;4.78;2.28;;;10.80;66.40;;;;;;5070125;28;20190;-71
2023/03/29 08:47:20;;;;;;;2.00;0.90;;;11.00;66.60;;;;;;5069849;28;20278;-70
2023/03/29 08:49:56;;;;;;;2.83;1.10;;;11.30;64.10;;;;;;5065927;28;20587;-72
2023/03/29 08:52:41;;;;;;;2.40;1.20;;;11.60;63.90;;;;;;5070123;28;20195;-72
2023/03/29 08:55:20;;;;;;;4.20;1.08;;;11.80;62.80;;;;;;5066887;28;20221;-71
2023/03/29 08:57:56;;;;;;;2.63;1.10;;;12.20;61.40;;;;;;5069459;28;20189;-71
2023/03/29 09:00:34;;;;;;;2.97;1.15;;;12.30;58.80;;;;;;5069743;28;20193;-73
2023/03/29 09:03:19;;;;;;;2.60;1.00;;;12.40;58.80;;;;;;5065450;28;20315;-72
2023/03/29 09:05:50;;;;;;;2.15;0.90;;;12.40;58.10;;;;;;5069324;28;20272;-72
2023/03/29 09:08:21;;;;;;;2.65;1.00;;;12.40;57.20;;;;;;5065809;28;20256;-71
2023/03/29 09:10:59;;;;;;;6.63;1.48;;;12.40;56.10;;;;;;5069910;28;20561;-72
2023/03/29 09:13:39;;;;;;;4.78;1.85;;;12.40;56.30;;;;;;5065499;28;20216;-71
2023/03/29 09:16:13;;;;;;;2.70;1.60;;;12.40;56.30;;;;;;5069652;28;20197;-71
2023/03/29 09:18:49;;;;;;;2.15;1.00;;;12.40;55.80;;;;;;5066284;28;20544;-71
2023/03/29 09:21:35;;;;;;;2.90;1.35;;;12.50;56.00;;;;;;5069528;28;20231;-74
2023/03/29 09:24:34;;;;;;;4.85;1.25;;;12.50;56.10;;;;;;5067307;28;20247;-71
2023/03/29 09:27:07;;;;;;;2.95;1.15;;;12.60;55.90;;;;;;5047487;28;20225;-71
2023/03/29 09:29:52;;;;;;;3.42;1.40;;;12.60;55.40;;;;;;5065060;28;20224;-71
2023/03/29 09:32:22;;;;;;;2.83;1.30;;;12.60;54.50;;;;;;5069071;28;20668;-71
2023/03/29 09:34:58;;;;;;;2.72;1.40;;;12.70;56.20;;;;;;5070293;28;20221;-71
2023/03/29 09:37:32;;;;;;;2.22;1.17;;;12.70;57.20;;;;;;5070746;28;20672;-71
2023/03/29 09:40:00;;;;;;;2.60;1.38;;;12.90;57.50;;;;;;5067058;28;20193;-71
2023/03/29 09:42:29;;;;;;;3.40;1.63;;;12.90;57.90;;;;;;5069683;28;20561;-71
2023/03/29 09:45:07;;;;;;;2.15;1.10;;;13.10;57.00;;;;;;5069716;28;20193;-73
2023/03/29 09:47:38;;;;;;;3.17;1.35;;;13.10;56.40;;;;;;5067840;28;20197;-72
2023/03/29 09:50:12;;;;;;;3.70;1.20;;;13.10;56.50;;;;;;5069261;28;20280;-73
2023/03/29 09:52:41;;;;;;;2.17;1.17;;;13.10;56.80;;;;;;5066134;28;20185;-73
2023/03/29 09:55:14;;;;;;;3.38;1.40;;;13.10;56.60;;;;;;5070230;28;20271;-71
2023/03/29 09:57:53;;;;;;;7.63;1.30;;;13.10;56.60;;;;;;5069506;28;20190;-72
2023/03/29 10:00:28;;;;;;;2.90;1.50;;;13.10;56.30;;;;;;5070532;28;20204;-71
2023/03/29 10:02:58;;;;;;;3.92;1.90;;;13.00;55.90;;;;;;5068874;28;20190;-71
2023/03/29 10:05:28;;;;;;;2.65;1.45;;;12.90;56.00;;;;;;5068273;28;20240;-71
2023/03/29 10:07:59;;;;;;;2.78;1.65;;;12.90;56.10;;;;;;5070033;28;20226;-71
2023/03/29 10:10:30;;;;;;;4.05;2.80;;;13.00;56.20;;;;;;5070049;28;20190;-71
2023/03/29 10:13:04;;;;;;;4.50;1.73;;;13.00;56.10;;;;;;5069788;28;20537;-71
2023/03/29 10:15:33;;;;;;;2.45;1.00;;;13.00;57.10;;;;;;5069292;28;20855;-72
2023/03/29 10:18:02;;;;;;;4.20;1.50;;;13.10;57.00;;;;;;5068845;28;20285;-73
2023/03/29 10:20:30;;;;;;;2.58;1.13;;;13.10;56.20;;;;;;5072687;28;20216;-71
2023/03/29 10:22:59;;;;;;;3.23;1.83;;;13.30;57.10;;;;;;5071939;28;20190;-71
2023/03/29 10:25:30;;;;;;;1.90;1.00;;;13.40;56.40;;;;;;5071187;28;20436;-71
2023/03/29 10:28:04;;;;;;;3.95;1.70;;;13.60;56.00;;;;;;5074012;28;20208;-71
2023/03/29 10:30:37;;;;;;;2.90;1.93;;;13.80;56.90;;;;;;5070753;28;20181;-72
2023/03/29 10:33:06;;;;;;;7.50;3.70;;;14.30;55.40;;;;;;5072130;28;20481;-71
2023/03/29 10:35:39;;;;;;;7.10;3.33;;;14.70;52.50;;;;;;5074005;28;20566;-71
2023/03/29 10:38:13;;;;;;;3.33;1.60;;;15.10;50.50;;;;;;5073793;28;20459;-71
2023/03/29 10:40:44;;;;;;;3.10;1.27;;;15.50;50.50;;;;;;5073199;28;20439;-71
2023/03/29 10:43:21;;;;;;;2.90;1.40;;;15.60;50.10;;;;;;5073297;28;20440;-74
2023/03/29 10:45:51;;;;;;;2.67;1.27;;;16.00;50.50;;;;;;5067466;28;20436;-72
2023/03/29 10:48:18;;;;;;;6.30;1.73;;;16.30;48.00;;;;;;5072145;28;20519;-71
2023/03/29 10:50:51;;;;;;;2.90;1.30;;;16.30;46.30;;;;;;5072067;28;20950;-72
2023/03/29 10:53:24;;;;;;;6.23;2.30;;;16.20;46.50;;;;;;5072970;28;20531;-73
2023/03/29 10:56:00;;;;;;;2.53;1.00;;;16.00;46.00;;;;;;5072884;28;20981;-72
2023/03/29 10:58:36;;;;;;;3.10;1.30;;;16.10;46.10;;;;;;5069074;28;20444;-72
2023/03/29 11:01:05;;;;;;;8.53;1.40;;;16.20;45.80;;;;;;5072530;28;20436;-75
2023/03/29 11:03:58;;;;;;;2.43;0.97;;;16.20;45.90;;;;;;5067826;28;20436;-71
2023/03/29 11:06:33;;;;;;;5.87;2.57;;;16.10;46.00;;;;;;5068039;28;20463;-71
2023/03/29 11:09:07;;;;;;;2.80;1.40;;;16.20;46.70;;;;;;5071636;28;20558;-71
2023/03/29 11:11:51;;;;;;;6.90;1.40;;;16.20;45.80;;;;;;5072290;28;20486;-71
2023/03/29 11:14:28;;;;;;;3.63;1.53;;;16.20;44.00;;;;;;5066584;28;20505;-70
2023/03/29 11:17:11;;;;;;;4.70;1.67;;;16.20;42.70;;;;;;5068422;28;21004;-68
2023/03/29 11:19:55;;;;;;;8.77;1.50;;;16.30;42.90;;;;;;5069736;28;20510;-68
2023/03/29 11:22:29;;;;;;;4.50;1.30;;;16.30;41.20;;;;;;5064955;28;20436;-70
2023/03/29 11:25:17;;;;;;;8.40;1.30;;;16.20;39.90;;;;;;5070089;28;20794;-69
2023/03/29 11:27:54;;;;;;;5.50;1.40;;;16.20;38.80;;;;;;5066500;28;20436;-69
2023/03/29 11:30:25;;;;;;;2.27;0.80;;;16.50;39.50;;;;;;5073156;28;20911;-69
2023/03/29 11:33:02;;;;;;;5.50;1.20;;;16.80;38.30;;;;;;5073686;28;20444;-69
2023/03/29 11:35:55;;;;;;;4.20;1.53;;;17.30;37.50;;;;;;5072964;28;21015;-69
2023/03/29 11:38:31;;;;;;;10.93;1.50;;;18.30;36.40;;;;;;5070319;28;20584;-69
2023/03/29 11:41:03;;;;;;;4.40;1.30;;;19.60;36.10;;;;;;5073750;28;20942;-72
2023/03/29 11:43:35;;;;;;;5.23;1.50;;;20.60;33.10;;;;;;5073492;28;20440;-70
2023/03/29 11:46:09;;;;;;;3.73;1.10;;;21.10;30.30;;;;;;5073719;28;20952;-69
2023/03/29 11:48:43;;;;;;;2.70;1.10;;;21.60;29.10;;;;;;5072350;28;20446;-69
2023/03/29 11:51:16;;;;;;;4.00;1.30;;;21.80;28.70;;;;;;5074313;28;20436;-69
2023/03/29 11:53:55;;;;;;;5.40;1.63;;;22.00;28.50;;;;;;5073207;28;20435;-69
2023/03/29 11:56:28;;;;;;;3.13;0.90;;;22.10;28.60;;;;;;5072850;28;20488;-72
2023/03/29 11:59:01;;;;;;;2.33;0.90;;;22.20;29.50;;;;;;5070651;28;20466;-75
2023/03/29 12:01:33;;;;;;;2.60;0.90;;;22.20;28.00;;;;;;5073049;28;20440;-70
2023/03/29 12:04:07;;;;;;;2.70;0.93;;;23.40;26.90;;;;;;5072402;28;20915;-71
2023/03/29 12:06:39;;;;;;;3.13;1.23;;;23.50;26.10;;;;;;5072687;28;20448;-70
2023/03/29 12:09:12;;;;;;;3.27;0.90;;;23.90;27.00;;;;;;5072835;28;20474;-70
2023/03/29 12:11:44;;;;;;;3.83;1.10;;;24.90;26.10;;;;;;5073395;28;20439;-69
2023/03/29 12:14:16;;;;;;;5.70;1.00;;;25.60;24.60;;;;;;5073304;28;20945;-70
2023/03/29 12:16:47;;;;;;;3.23;1.20;;;26.00;24.30;;;;;;5073434;28;20518;-70
2023/03/29 12:19:20;;;;;;;3.27;1.00;;;27.10;24.00;;;;;;5073387;28;20463;-73
2023/03/29 12:21:48;;;;;;;2.57;1.10;;;28.60;22.10;;;;;;5073164;28;20468;-72
2023/03/29 12:24:17;;;;;;;4.33;0.93;;;28.40;20.10;;;;;;5072685;28;20807;-71
2023/03/29 12:27:02;;;;;;;4.83;1.53;;;27.50;20.50;;;;;;5073074;28;20511;-70
2023/03/29 12:29:43;;;;;;;3.03;1.03;;;26.90;19.80;;;;;;5072955;28;20432;-70
2023/03/29 12:32:36;;;;;;;2.83;1.03;;;26.70;20.90;;;;;;5072370;28;20527;-70
2023/03/29 12:35:22;;;;;;;3.00;1.13;;;27.00;20.60;;;;;;5072475;28;20507;-71
2023/03/29 12:38:03;;;;;;;10.37;1.93;;;27.40;20.00;;;;;;5073157;28;20432;-70
2023/03/29 12:40:39;;;;;;;2.30;0.90;;;27.20;20.70;;;;;;5072608;28;20446;-70
2023/03/29 12:43:08;;;;;;;3.80;1.07;;;27.20;20.10;;;;;;5070460;28;20814;-71
2023/03/29 12:45:39;;;;;;;2.80;0.87;;;27.30;20.00;;;;;;5072868;28;20856;-70
2023/03/29 12:48:07;;;;;;;3.83;1.00;;;26.70;20.20;;;;;;5072602;28;21003;-70
2023/03/29 12:50:39;;;;;;;4.37;1.10;;;25.90;21.10;;;;;;5072761;28;20531;-78
2023/03/29 12:53:18;;;;;;;4.70;1.50;;;26.00;22.20;;;;;;5065934;28;20466;-70
2023/03/29 12:55:54;;;;;;;5.57;1.10;;;26.50;21.60;;;;;;5062333;28;20550;-71
2023/03/29 12:58:28;;;;;;;3.50;1.10;;;25.90;21.40;;;;;;5071295;28;20467;-71
2023/03/29 13:01:06;;;;;;;2.77;1.17;;;25.10;21.70;;;;;;5064308;28;20428;-72
2023/03/29 13:03:41;;;;;;;3.10;1.40;;;24.20;21.80;;;;;;5070670;28;20482;-70
2023/03/29 13:06:11;;;;;;;4.30;1.27;;;23.30;23.40;;;;;;5066054;28;20539;-70
2023/03/29 13:08:41;;;;;;;4.03;1.17;;;22.60;24.00;;;;;;5071164;28;20464;-71
2023/03/29 13:11:13;;;;;;;4.67;1.30;;;22.20;24.30;;;;;;5066020;28;20437;-70
2023/03/29 13:13:43;;;;;;;5.67;1.07;;;21.80;25.30;;;;;;5071403;28;20440;-70